sensor_id;sensor_type;location;lat;lon;timestamp;temperature;humidity
59025;DHT22;44806;48.008;13.666;2022-10-16T00:00:00;14.30;99.90
59025;DHT22;44806;48.008;13.666;2022-10-16T00:02:27;14.30;99.90
59025;DHT22;44806;48.008;13.666;2022-10-16T00:04:54;14.20;99.90
59025;DHT22;44806;48.008;13.666;2022-10-16T00:07:21;14.20;99.90
59025;DHT22;44806;48.008;13.666;2022-10-16T00:09:50;14.20;99.90
59025;DHT22;44806;48.008;13.666;2022-10-16T00:12:17;14.20;99.90
59025;DHT22;44806;48.008;13.666;2022-10-16T00:14:44;14.10;99.90
59025;DHT22;44806;48.008;13.666;2022-10-16T00:17:11;14.10;99.90
59025;DHT22;44806;48.008;13.666;2022-10-16T00:19:38;14.10;99.90
59025;DHT22;44806;48.008;13.666;2022-10-16T00:22:05;14.10;99.90
59025;DHT22;44806;48.008;13.666;2022-10-16T00:24:32;14.10;99.90
59025;DHT22;44806;48.008;13.666;2022-10-16T00:27:01;14.10;99.90
59025;DHT22;44806;48.008;13.666;2022-10-16T00:29:28;14.10;99.90
59025;DHT22;44806;48.008;13.666;2022-10-16T00:31:55;14.10;99.90
59025;DHT22;44806;48.008;13.666;2022-10-16T00:34:22;14.10;99.90
59025;DHT22;44806;48.008;13.666;2022-10-16T00:36:49;14.10;99.90
59025;DHT22;44806;48.008;13.666;2022-10-16T00:39:16;14.00;99.90
59025;DHT22;44806;48.008;13.666;2022-10-16T00:41:43;14.00;99.90
59025;DHT22;44806;48.008;13.666;2022-10-16T00:44:43;14.00;99.90
59025;DHT22;44806;48.008;13.666;2022-10-16T00:47:15;14.00;99.90
59025;DHT22;44806;48.008;13.666;2022-10-16T00:49:43;13.90;99.90
59025;DHT22;44806;48.008;13.666;2022-10-16T00:52:10;13.90;99.90
59025;DHT22;44806;48.008;13.666;2022-10-16T00:54:40;13.90;99.90
59025;DHT22;44806;48.008;13.666;2022-10-16T00:57:09;13.90;99.90
59025;DHT22;44806;48.008;13.666;2022-10-16T00:59:38;13.90;99.90
59025;DHT22;44806;48.008;13.666;2022-10-16T01:02:12;13.90;99.90
59025;DHT22;44806;48.008;13.666;2022-10-16T01:04:41;13.90;99.90
59025;DHT22;44806;48.008;13.666;2022-10-16T01:07:13;13.80;99.90
59025;DHT22;44806;48.008;13.666;2022-10-16T01:09:51;13.80;99.90
59025;DHT22;44806;48.008;13.666;2022-10-16T01:12:26;13.80;99.90
59025;DHT22;44806;48.008;13.666;2022-10-16T01:14:59;13.80;99.90
59025;DHT22;44806;48.008;13.666;2022-10-16T01:17:35;13.70;99.90
59025;DHT22;44806;48.008;13.666;2022-10-16T01:20:10;13.70;99.90
59025;DHT22;44806;48.008;13.666;2022-10-16T01:22:44;13.70;99.90
59025;DHT22;44806;48.008;13.666;2022-10-16T01:25:22;13.70;99.90
59025;DHT22;44806;48.008;13.666;2022-10-16T01:27:52;13.60;99.90
59025;DHT22;44806;48.008;13.666;2022-10-16T01:30:23;13.60;99.90
59025;DHT22;44806;48.008;13.666;2022-10-16T01:32:56;13.60;99.90
59025;DHT22;44806;48.008;13.666;2022-10-16T01:35:26;13.60;99.90
59025;DHT22;44806;48.008;13.666;2022-10-16T01:37:58;13.60;99.90
59025;DHT22;44806;48.008;13.666;2022-10-16T01:40:28;13.50;99.90
59025;DHT22;44806;48.008;13.666;2022-10-16T01:43:00;13.50;99.90
59025;DHT22;44806;48.008;13.666;2022-10-16T01:45:28;13.50;99.90
59025;DHT22;44806;48.008;13.666;2022-10-16T01:47:56;13.50;99.90
59025;DHT22;44806;48.008;13.666;2022-10-16T01:50:24;13.40;99.90
59025;DHT22;44806;48.008;13.666;2022-10-16T01:52:55;13.40;99.90
59025;DHT22;44806;48.008;13.666;2022-10-16T01:55:28;13.40;99.90
59025;DHT22;44806;48.008;13.666;2022-10-16T01:57:58;13.40;99.90
59025;DHT22;44806;48.008;13.666;2022-10-16T02:00:26;13.30;99.90
59025;DHT22;44806;48.008;13.666;2022-10-16T02:02:55;13.30;99.90
59025;DHT22;44806;48.008;13.666;2022-10-16T02:05:27;13.30;99.90
59025;DHT22;44806;48.008;13.666;2022-10-16T02:07:55;13.30;99.90
59025;DHT22;44806;48.008;13.666;2022-10-16T02:10:23;13.30;99.90
59025;DHT22;44806;48.008;13.666;2022-10-16T02:12:57;13.20;99.90
59025;DHT22;44806;48.008;13.666;2022-10-16T02:15:26;13.20;99.90
59025;DHT22;44806;48.008;13.666;2022-10-16T02:17:53;13.10;99.90
59025;DHT22;44806;48.008;13.666;2022-10-16T02:20:25;13.10;99.90
59025;DHT22;44806;48.008;13.666;2022-10-16T02:22:54;13.10;99.90
59025;DHT22;44806;48.008;13.666;2022-10-16T02:25:27;13.10;99.90
59025;DHT22;44806;48.008;13.666;2022-10-16T02:28:02;13.00;99.90
59025;DHT22;44806;48.008;13.666;2022-10-16T02:30:34;13.00;99.90
59025;DHT22;44806;48.008;13.666;2022-10-16T02:33:05;13.00;99.90
59025;DHT22;44806;48.008;13.666;2022-10-16T02:35:34;12.90;99.90
59025;DHT22;44806;48.008;13.666;2022-10-16T02:38:01;12.90;99.90
59025;DHT22;44806;48.008;13.666;2022-10-16T02:40:28;12.90;99.90
59025;DHT22;44806;48.008;13.666;2022-10-16T02:42:55;12.90;99.90
59025;DHT22;44806;48.008;13.666;2022-10-16T02:45:24;12.90;99.90
59025;DHT22;44806;48.008;13.666;2022-10-16T02:47:51;12.90;99.90
59025;DHT22;44806;48.008;13.666;2022-10-16T02:50:18;12.80;99.90
59025;DHT22;44806;48.008;13.666;2022-10-16T02:52:45;12.80;99.90
59025;DHT22;44806;48.008;13.666;2022-10-16T02:55:12;12.80;99.90
59025;DHT22;44806;48.008;13.666;2022-10-16T02:57:40;12.80;99.90
59025;DHT22;44806;48.008;13.666;2022-10-16T03:00:09;12.80;99.90
59025;DHT22;44806;48.008;13.666;2022-10-16T03:02:38;12.70;99.90
59025;DHT22;44806;48.008;13.666;2022-10-16T03:05:05;12.70;99.90
59025;DHT22;44806;48.008;13.666;2022-10-16T03:07:33;12.70;99.90
59025;DHT22;44806;48.008;13.666;2022-10-16T03:10:00;12.60;99.90
59025;DHT22;44806;48.008;13.666;2022-10-16T03:12:27;12.70;99.90
59025;DHT22;44806;48.008;13.666;2022-10-16T03:14:55;12.70;99.90
59025;DHT22;44806;48.008;13.666;2022-10-16T03:17:22;12.70;99.90
59025;DHT22;44806;48.008;13.666;2022-10-16T03:19:50;12.70;99.90
59025;DHT22;44806;48.008;13.666;2022-10-16T03:22:17;12.70;99.90
59025;DHT22;44806;48.008;13.666;2022-10-16T03:24:44;12.70;99.90
59025;DHT22;44806;48.008;13.666;2022-10-16T03:27:12;12.60;99.90
59025;DHT22;44806;48.008;13.666;2022-10-16T03:29:39;12.60;99.90
59025;DHT22;44806;48.008;13.666;2022-10-16T03:32:06;12.60;99.90
59025;DHT22;44806;48.008;13.666;2022-10-16T03:34:33;12.60;99.90
59025;DHT22;44806;48.008;13.666;2022-10-16T03:37:01;12.60;99.90
59025;DHT22;44806;48.008;13.666;2022-10-16T03:39:28;12.60;99.90
59025;DHT22;44806;48.008;13.666;2022-10-16T03:41:58;12.60;99.90
59025;DHT22;44806;48.008;13.666;2022-10-16T03:44:25;12.60;99.90
59025;DHT22;44806;48.008;13.666;2022-10-16T03:46:52;12.50;99.90
59025;DHT22;44806;48.008;13.666;2022-10-16T03:49:19;12.50;99.90
59025;DHT22;44806;48.008;13.666;2022-10-16T03:51:46;12.60;99.90
59025;DHT22;44806;48.008;13.666;2022-10-16T03:54:15;12.50;99.90
59025;DHT22;44806;48.008;13.666;2022-10-16T03:56:42;12.50;99.90
59025;DHT22;44806;48.008;13.666;2022-10-16T03:59:09;12.50;99.90
59025;DHT22;44806;48.008;13.666;2022-10-16T04:01:36;12.50;99.90
59025;DHT22;44806;48.008;13.666;2022-10-16T04:04:03;12.40;99.90
59025;DHT22;44806;48.008;13.666;2022-10-16T04:06:30;12.40;99.90
59025;DHT22;44806;48.008;13.666;2022-10-16T04:08:57;12.40;99.90
59025;DHT22;44806;48.008;13.666;2022-10-16T04:11:26;12.40;99.90
59025;DHT22;44806;48.008;13.666;2022-10-16T04:13:54;12.40;99.90
59025;DHT22;44806;48.008;13.666;2022-10-16T04:16:21;12.50;99.90
59025;DHT22;44806;48.008;13.666;2022-10-16T04:18:48;12.40;99.90
59025;DHT22;44806;48.008;13.666;2022-10-16T04:21:15;12.40;99.90
59025;DHT22;44806;48.008;13.666;2022-10-16T04:23:42;12.40;99.90
59025;DHT22;44806;48.008;13.666;2022-10-16T04:26:09;12.40;99.90
59025;DHT22;44806;48.008;13.666;2022-10-16T04:28:38;12.40;99.90
59025;DHT22;44806;48.008;13.666;2022-10-16T04:31:06;12.30;99.90
59025;DHT22;44806;48.008;13.666;2022-10-16T04:33:33;12.30;99.90
59025;DHT22;44806;48.008;13.666;2022-10-16T04:36:01;12.30;99.90
59025;DHT22;44806;48.008;13.666;2022-10-16T04:38:28;12.30;99.90
59025;DHT22;44806;48.008;13.666;2022-10-16T04:40:55;12.20;99.90
59025;DHT22;44806;48.008;13.666;2022-10-16T04:43:22;12.20;99.90
59025;DHT22;44806;48.008;13.666;2022-10-16T04:45:51;12.20;99.90
59025;DHT22;44806;48.008;13.666;2022-10-16T04:48:20;12.20;99.90
59025;DHT22;44806;48.008;13.666;2022-10-16T04:50:47;12.20;99.90
59025;DHT22;44806;48.008;13.666;2022-10-16T04:53:14;12.20;99.90
59025;DHT22;44806;48.008;13.666;2022-10-16T04:55:41;12.10;99.90
59025;DHT22;44806;48.008;13.666;2022-10-16T04:58:09;12.10;99.90
59025;DHT22;44806;48.008;13.666;2022-10-16T05:00:36;12.10;99.90
59025;DHT22;44806;48.008;13.666;2022-10-16T05:03:05;12.10;99.90
59025;DHT22;44806;48.008;13.666;2022-10-16T05:05:34;12.10;99.90
59025;DHT22;44806;48.008;13.666;2022-10-16T05:08:01;12.00;99.90
59025;DHT22;44806;48.008;13.666;2022-10-16T05:10:29;12.00;99.90
59025;DHT22;44806;48.008;13.666;2022-10-16T05:12:56;12.00;99.90
59025;DHT22;44806;48.008;13.666;2022-10-16T05:45:43;11.60;99.90
59025;DHT22;44806;48.008;13.666;2022-10-16T05:48:10;11.60;99.90
59025;DHT22;44806;48.008;13.666;2022-10-16T05:50:37;11.60;99.90
59025;DHT22;44806;48.008;13.666;2022-10-16T05:53:04;11.60;99.90
59025;DHT22;44806;48.008;13.666;2022-10-16T05:55:31;11.60;99.90
59025;DHT22;44806;48.008;13.666;2022-10-16T05:57:58;11.60;99.90
59025;DHT22;44806;48.008;13.666;2022-10-16T06:00:25;11.60;99.90
59025;DHT22;44806;48.008;13.666;2022-10-16T06:02:54;11.70;99.90
59025;DHT22;44806;48.008;13.666;2022-10-16T06:05:21;11.70;99.90
59025;DHT22;44806;48.008;13.666;2022-10-16T06:07:48;11.60;99.90
59025;DHT22;44806;48.008;13.666;2022-10-16T06:10:15;11.60;99.90
59025;DHT22;44806;48.008;13.666;2022-10-16T06:12:42;11.60;99.90
59025;DHT22;44806;48.008;13.666;2022-10-16T06:15:09;11.70;99.90
59025;DHT22;44806;48.008;13.666;2022-10-16T06:17:36;11.60;99.90
59025;DHT22;44806;48.008;13.666;2022-10-16T06:20:06;11.70;99.90
59025;DHT22;44806;48.008;13.666;2022-10-16T06:22:33;11.70;99.90
59025;DHT22;44806;48.008;13.666;2022-10-16T06:25:00;11.70;99.90
59025;DHT22;44806;48.008;13.666;2022-10-16T06:27:27;11.80;99.90
59025;DHT22;44806;48.008;13.666;2022-10-16T06:29:54;11.80;99.90
59025;DHT22;44806;48.008;13.666;2022-10-16T06:32:23;11.80;99.90
59025;DHT22;44806;48.008;13.666;2022-10-16T06:55:28;12.00;99.90
59025;DHT22;44806;48.008;13.666;2022-10-16T06:57:55;12.10;99.90
59025;DHT22;44806;48.008;13.666;2022-10-16T07:00:22;12.10;99.90
59025;DHT22;44806;48.008;13.666;2022-10-16T07:02:50;12.20;99.90
59025;DHT22;44806;48.008;13.666;2022-10-16T07:12:03;12.20;99.90
59025;DHT22;44806;48.008;13.666;2022-10-16T07:14:30;12.20;99.90
59025;DHT22;44806;48.008;13.666;2022-10-16T07:16:57;12.20;99.90
59025;DHT22;44806;48.008;13.666;2022-10-16T07:19:24;12.30;99.90
59025;DHT22;44806;48.008;13.666;2022-10-16T07:21:51;12.30;99.90
59025;DHT22;44806;48.008;13.666;2022-10-16T07:24:18;12.40;99.90
59025;DHT22;44806;48.008;13.666;2022-10-16T07:26:48;12.50;99.90
59025;DHT22;44806;48.008;13.666;2022-10-16T07:29:18;12.50;99.90
59025;DHT22;44806;48.008;13.666;2022-10-16T07:31:45;12.60;99.90
59025;DHT22;44806;48.008;13.666;2022-10-16T07:34:14;12.70;99.90
59025;DHT22;44806;48.008;13.666;2022-10-16T07:36:41;12.90;99.90
59025;DHT22;44806;48.008;13.666;2022-10-16T07:39:08;13.00;99.90
59025;DHT22;44806;48.008;13.666;2022-10-16T07:41:36;13.10;99.90
59025;DHT22;44806;48.008;13.666;2022-10-16T07:44:03;13.10;99.90
59025;DHT22;44806;48.008;13.666;2022-10-16T07:46:33;13.20;99.90
59025;DHT22;44806;48.008;13.666;2022-10-16T07:49:01;13.30;99.90
59025;DHT22;44806;48.008;13.666;2022-10-16T07:51:28;13.40;99.90
59025;DHT22;44806;48.008;13.666;2022-10-16T07:53:55;13.60;99.90
59025;DHT22;44806;48.008;13.666;2022-10-16T07:56:23;13.70;99.90
59025;DHT22;44806;48.008;13.666;2022-10-16T07:58:50;13.80;99.90
59025;DHT22;44806;48.008;13.666;2022-10-16T08:01:18;13.90;99.90
59025;DHT22;44806;48.008;13.666;2022-10-16T08:03:48;14.00;99.90
59025;DHT22;44806;48.008;13.666;2022-10-16T08:06:16;14.10;99.90
59025;DHT22;44806;48.008;13.666;2022-10-16T08:08:43;14.20;99.90
59025;DHT22;44806;48.008;13.666;2022-10-16T08:11:10;14.30;99.90
59025;DHT22;44806;48.008;13.666;2022-10-16T08:13:37;14.40;99.90
59025;DHT22;44806;48.008;13.666;2022-10-16T08:16:05;14.40;99.90
59025;DHT22;44806;48.008;13.666;2022-10-16T08:18:34;14.60;99.90
59025;DHT22;44806;48.008;13.666;2022-10-16T08:21:04;14.70;99.90
59025;DHT22;44806;48.008;13.666;2022-10-16T08:23:32;14.80;99.90
59025;DHT22;44806;48.008;13.666;2022-10-16T08:56:40;16.20;99.90
59025;DHT22;44806;48.008;13.666;2022-10-16T08:59:10;16.40;99.90
59025;DHT22;44806;48.008;13.666;2022-10-16T09:01:41;16.50;99.90
59025;DHT22;44806;48.008;13.666;2022-10-16T09:04:32;16.60;99.90
59025;DHT22;44806;48.008;13.666;2022-10-16T09:07:13;16.70;99.90
59025;DHT22;44806;48.008;13.666;2022-10-16T09:09:55;16.80;99.90
59025;DHT22;44806;48.008;13.666;2022-10-16T09:12:31;17.00;99.90
59025;DHT22;44806;48.008;13.666;2022-10-16T09:15:07;17.10;99.90
59025;DHT22;44806;48.008;13.666;2022-10-16T09:17:46;17.10;99.90
59025;DHT22;44806;48.008;13.666;2022-10-16T09:20:27;17.30;99.90
59025;DHT22;44806;48.008;13.666;2022-10-16T09:23:08;17.30;99.90
59025;DHT22;44806;48.008;13.666;2022-10-16T09:25:39;17.40;99.90
59025;DHT22;44806;48.008;13.666;2022-10-16T09:28:09;17.60;99.90
59025;DHT22;44806;48.008;13.666;2022-10-16T09:30:38;17.60;99.90
59025;DHT22;44806;48.008;13.666;2022-10-16T09:33:06;17.80;99.90
59025;DHT22;44806;48.008;13.666;2022-10-16T09:35:37;17.90;99.90
59025;DHT22;44806;48.008;13.666;2022-10-16T09:38:06;18.00;99.90
59025;DHT22;44806;48.008;13.666;2022-10-16T09:40:38;18.20;99.90
59025;DHT22;44806;48.008;13.666;2022-10-16T09:43:22;18.30;99.90
59025;DHT22;44806;48.008;13.666;2022-10-16T09:46:02;18.40;99.90
59025;DHT22;44806;48.008;13.666;2022-10-16T09:48:34;18.50;99.90
59025;DHT22;44806;48.008;13.666;2022-10-16T09:51:04;18.50;99.90
59025;DHT22;44806;48.008;13.666;2022-10-16T10:22:45;19.70;99.90
59025;DHT22;44806;48.008;13.666;2022-10-16T10:25:19;19.80;99.90
59025;DHT22;44806;48.008;13.666;2022-10-16T10:28:00;19.90;99.90
59025;DHT22;44806;48.008;13.666;2022-10-16T10:30:37;19.90;99.90
59025;DHT22;44806;48.008;13.666;2022-10-16T10:33:28;20.10;99.90
59025;DHT22;44806;48.008;13.666;2022-10-16T10:36:03;20.20;99.90
59025;DHT22;44806;48.008;13.666;2022-10-16T10:38:42;20.40;99.90
59025;DHT22;44806;48.008;13.666;2022-10-16T10:41:43;20.40;99.90
59025;DHT22;44806;48.008;13.666;2022-10-16T10:44:16;20.50;99.90
59025;DHT22;44806;48.008;13.666;2022-10-16T10:46:50;20.60;99.90
59025;DHT22;44806;48.008;13.666;2022-10-16T10:49:29;20.70;98.90
59025;DHT22;44806;48.008;13.666;2022-10-16T10:52:12;20.70;98.90
59025;DHT22;44806;48.008;13.666;2022-10-16T10:54:47;20.80;99.30
59025;DHT22;44806;48.008;13.666;2022-10-16T10:57:25;20.80;99.60
59025;DHT22;44806;48.008;13.666;2022-10-16T11:00:04;20.90;98.80
59025;DHT22;44806;48.008;13.666;2022-10-16T11:02:38;21.00;99.00
59025;DHT22;44806;48.008;13.666;2022-10-16T11:05:31;21.10;98.70
59025;DHT22;44806;48.008;13.666;2022-10-16T11:08:02;21.20;98.70
59025;DHT22;44806;48.008;13.666;2022-10-16T11:10:40;21.30;99.60
59025;DHT22;44806;48.008;13.666;2022-10-16T11:13:18;21.40;98.00
59025;DHT22;44806;48.008;13.666;2022-10-16T11:15:48;21.50;98.20
59025;DHT22;44806;48.008;13.666;2022-10-16T11:18:18;21.60;98.50
59025;DHT22;44806;48.008;13.666;2022-10-16T11:20:50;21.60;98.40
59025;DHT22;44806;48.008;13.666;2022-10-16T11:23:23;21.70;98.50
59025;DHT22;44806;48.008;13.666;2022-10-16T11:25:56;21.80;99.20
59025;DHT22;44806;48.008;13.666;2022-10-16T11:28:27;21.90;97.90
59025;DHT22;44806;48.008;13.666;2022-10-16T11:31:00;21.90;98.00
59025;DHT22;44806;48.008;13.666;2022-10-16T11:33:33;21.80;98.30
59025;DHT22;44806;48.008;13.666;2022-10-16T11:36:08;21.90;98.40
59025;DHT22;44806;48.008;13.666;2022-10-16T11:38:47;21.80;99.30
59025;DHT22;44806;48.008;13.666;2022-10-16T11:41:23;21.60;99.30
59025;DHT22;44806;48.008;13.666;2022-10-16T11:44:00;21.70;99.90
59025;DHT22;44806;48.008;13.666;2022-10-16T11:46:32;21.80;99.90
59025;DHT22;44806;48.008;13.666;2022-10-16T11:49:03;21.90;99.90
59025;DHT22;44806;48.008;13.666;2022-10-16T11:51:39;21.90;99.70
59025;DHT22;44806;48.008;13.666;2022-10-16T11:54:17;21.90;99.60
59025;DHT22;44806;48.008;13.666;2022-10-16T11:56:50;21.90;99.50
59025;DHT22;44806;48.008;13.666;2022-10-16T11:59:24;22.00;99.00
59025;DHT22;44806;48.008;13.666;2022-10-16T12:01:58;22.10;99.90
59025;DHT22;44806;48.008;13.666;2022-10-16T12:04:33;22.10;99.50
59025;DHT22;44806;48.008;13.666;2022-10-16T12:42:33;21.90;99.40
59025;DHT22;44806;48.008;13.666;2022-10-16T12:45:01;21.90;99.80
59025;DHT22;44806;48.008;13.666;2022-10-16T12:47:47;21.90;99.90
59025;DHT22;44806;48.008;13.666;2022-10-16T12:50:33;22.00;99.90
59025;DHT22;44806;48.008;13.666;2022-10-16T12:53:01;22.00;99.80
59025;DHT22;44806;48.008;13.666;2022-10-16T12:55:34;22.00;99.90
59025;DHT22;44806;48.008;13.666;2022-10-16T13:01:10;22.00;99.90
59025;DHT22;44806;48.008;13.666;2022-10-16T13:04:04;22.00;99.90
59025;DHT22;44806;48.008;13.666;2022-10-16T13:06:37;22.00;99.90
59025;DHT22;44806;48.008;13.666;2022-10-16T13:09:22;22.00;99.90
59025;DHT22;44806;48.008;13.666;2022-10-16T13:12:00;22.00;99.90
59025;DHT22;44806;48.008;13.666;2022-10-16T13:17:42;21.90;99.90
59025;DHT22;44806;48.008;13.666;2022-10-16T13:20:18;21.90;99.90
59025;DHT22;44806;48.008;13.666;2022-10-16T13:22:51;21.80;99.90
59025;DHT22;44806;48.008;13.666;2022-10-16T13:25:28;21.90;99.90
59025;DHT22;44806;48.008;13.666;2022-10-16T13:28:00;21.70;99.90
59025;DHT22;44806;48.008;13.666;2022-10-16T13:30:29;21.80;99.90
59025;DHT22;44806;48.008;13.666;2022-10-16T13:33:01;21.80;99.90
59025;DHT22;44806;48.008;13.666;2022-10-16T13:35:30;21.80;99.90
59025;DHT22;44806;48.008;13.666;2022-10-16T13:38:06;21.80;99.90
59025;DHT22;44806;48.008;13.666;2022-10-16T13:40:37;21.80;99.90
59025;DHT22;44806;48.008;13.666;2022-10-16T13:43:14;21.80;99.90
59025;DHT22;44806;48.008;13.666;2022-10-16T13:45:54;21.80;99.90
59025;DHT22;44806;48.008;13.666;2022-10-16T13:48:22;21.80;99.90
59025;DHT22;44806;48.008;13.666;2022-10-16T13:51:14;21.70;99.90
59025;DHT22;44806;48.008;13.666;2022-10-16T13:53:43;21.70;99.90
59025;DHT22;44806;48.008;13.666;2022-10-16T13:56:13;21.70;99.90
59025;DHT22;44806;48.008;13.666;2022-10-16T13:58:44;21.70;99.90
59025;DHT22;44806;48.008;13.666;2022-10-16T14:01:18;21.70;99.90
59025;DHT22;44806;48.008;13.666;2022-10-16T14:03:50;21.70;99.90
59025;DHT22;44806;48.008;13.666;2022-10-16T14:06:20;21.70;99.90
59025;DHT22;44806;48.008;13.666;2022-10-16T14:08:52;21.80;99.90
59025;DHT22;44806;48.008;13.666;2022-10-16T14:11:22;21.70;99.90
59025;DHT22;44806;48.008;13.666;2022-10-16T14:13:51;21.80;99.90
59025;DHT22;44806;48.008;13.666;2022-10-16T14:16:20;21.70;99.90
59025;DHT22;44806;48.008;13.666;2022-10-16T14:18:55;21.70;99.90
59025;DHT22;44806;48.008;13.666;2022-10-16T14:21:22;21.70;99.90
59025;DHT22;44806;48.008;13.666;2022-10-16T14:23:50;21.60;99.90
59025;DHT22;44806;48.008;13.666;2022-10-16T14:50:33;21.50;99.90
59025;DHT22;44806;48.008;13.666;2022-10-16T14:53:00;21.50;99.90
59025;DHT22;44806;48.008;13.666;2022-10-16T14:55:27;21.50;99.90
59025;DHT22;44806;48.008;13.666;2022-10-16T15:04:39;21.50;99.90
59025;DHT22;44806;48.008;13.666;2022-10-16T15:07:08;21.40;99.90
59025;DHT22;44806;48.008;13.666;2022-10-16T15:09:35;21.40;99.90
59025;DHT22;44806;48.008;13.666;2022-10-16T15:12:03;21.40;99.90
59025;DHT22;44806;48.008;13.666;2022-10-16T15:14:30;21.30;99.90
59025;DHT22;44806;48.008;13.666;2022-10-16T15:16:57;21.30;99.90
59025;DHT22;44806;48.008;13.666;2022-10-16T15:19:24;21.20;99.90
59025;DHT22;44806;48.008;13.666;2022-10-16T15:21:51;21.20;99.90
59025;DHT22;44806;48.008;13.666;2022-10-16T15:24:20;21.10;99.90
59025;DHT22;44806;48.008;13.666;2022-10-16T15:26:47;21.10;99.90
59025;DHT22;44806;48.008;13.666;2022-10-16T15:29:15;21.00;99.90
59025;DHT22;44806;48.008;13.666;2022-10-16T15:31:42;21.00;99.90
59025;DHT22;44806;48.008;13.666;2022-10-16T15:34:10;21.00;99.90
59025;DHT22;44806;48.008;13.666;2022-10-16T15:36:39;20.90;99.90
59025;DHT22;44806;48.008;13.666;2022-10-16T15:39:12;20.80;99.90
59025;DHT22;44806;48.008;13.666;2022-10-16T15:41:41;20.80;99.90
59025;DHT22;44806;48.008;13.666;2022-10-16T15:44:08;20.70;99.90
59025;DHT22;44806;48.008;13.666;2022-10-16T15:46:35;20.60;99.90
59025;DHT22;44806;48.008;13.666;2022-10-16T15:49:03;20.60;99.90
59025;DHT22;44806;48.008;13.666;2022-10-16T15:51:30;20.60;99.90
59025;DHT22;44806;48.008;13.666;2022-10-16T15:53:58;20.50;99.90
59025;DHT22;44806;48.008;13.666;2022-10-16T15:56:27;20.40;99.90
59025;DHT22;44806;48.008;13.666;2022-10-16T15:58:56;20.40;99.90
59025;DHT22;44806;48.008;13.666;2022-10-16T16:01:24;20.30;99.90
59025;DHT22;44806;48.008;13.666;2022-10-16T16:03:53;20.30;99.90
59025;DHT22;44806;48.008;13.666;2022-10-16T16:33:18;19.60;99.90
59025;DHT22;44806;48.008;13.666;2022-10-16T16:35:46;19.50;99.90
59025;DHT22;44806;48.008;13.666;2022-10-16T16:38:13;19.40;99.90
59025;DHT22;44806;48.008;13.666;2022-10-16T16:40:40;19.40;99.90
59025;DHT22;44806;48.008;13.666;2022-10-16T16:43:07;19.30;99.90
59025;DHT22;44806;48.008;13.666;2022-10-16T16:45:35;19.20;99.90
59025;DHT22;44806;48.008;13.666;2022-10-16T16:48:05;19.20;99.90
59025;DHT22;44806;48.008;13.666;2022-10-16T16:50:36;19.10;99.90
59025;DHT22;44806;48.008;13.666;2022-10-16T16:53:04;18.90;99.90
59025;DHT22;44806;48.008;13.666;2022-10-16T16:55:32;18.80;99.90
59025;DHT22;44806;48.008;13.666;2022-10-16T16:58:00;18.70;99.90
59025;DHT22;44806;48.008;13.666;2022-10-16T17:00:28;18.70;99.90
59025;DHT22;44806;48.008;13.666;2022-10-16T17:02:56;18.60;99.90
59025;DHT22;44806;48.008;13.666;2022-10-16T17:05:23;18.50;99.90
59025;DHT22;44806;48.008;13.666;2022-10-16T17:08:06;18.50;99.90
59025;DHT22;44806;48.008;13.666;2022-10-16T17:10:33;18.50;99.90
59025;DHT22;44806;48.008;13.666;2022-10-16T17:13:01;18.50;99.90
59025;DHT22;44806;48.008;13.666;2022-10-16T17:15:28;18.40;99.90
59025;DHT22;44806;48.008;13.666;2022-10-16T17:17:55;18.30;99.90
59025;DHT22;44806;48.008;13.666;2022-10-16T17:20:22;18.30;99.90
59025;DHT22;44806;48.008;13.666;2022-10-16T17:22:50;18.30;99.90
59025;DHT22;44806;48.008;13.666;2022-10-16T17:25:19;18.30;99.90
59025;DHT22;44806;48.008;13.666;2022-10-16T17:27:46;18.20;99.90
59025;DHT22;44806;48.008;13.666;2022-10-16T17:30:13;18.20;99.90
59025;DHT22;44806;48.008;13.666;2022-10-16T17:32:40;18.20;99.90
59025;DHT22;44806;48.008;13.666;2022-10-16T17:55:29;18.00;99.90
59025;DHT22;44806;48.008;13.666;2022-10-16T17:57:56;18.00;99.90
59025;DHT22;44806;48.008;13.666;2022-10-16T18:00:23;18.00;99.90
59025;DHT22;44806;48.008;13.666;2022-10-16T18:02:50;17.90;99.90
59025;DHT22;44806;48.008;13.666;2022-10-16T18:05:17;17.90;99.90
59025;DHT22;44806;48.008;13.666;2022-10-16T18:07:45;18.00;99.90
59025;DHT22;44806;48.008;13.666;2022-10-16T18:10:12;17.90;99.90
59025;DHT22;44806;48.008;13.666;2022-10-16T18:12:40;17.90;99.90
59025;DHT22;44806;48.008;13.666;2022-10-16T18:15:08;17.90;99.90
59025;DHT22;44806;48.008;13.666;2022-10-16T18:17:35;17.90;99.90
59025;DHT22;44806;48.008;13.666;2022-10-16T18:20:04;17.80;99.90
59025;DHT22;44806;48.008;13.666;2022-10-16T18:22:32;17.80;99.90
59025;DHT22;44806;48.008;13.666;2022-10-16T18:45:32;17.40;99.90
59025;DHT22;44806;48.008;13.666;2022-10-16T18:47:59;17.30;99.90
59025;DHT22;44806;48.008;13.666;2022-10-16T18:50:26;17.20;99.90
59025;DHT22;44806;48.008;13.666;2022-10-16T18:52:54;17.20;99.90
59025;DHT22;44806;48.008;13.666;2022-10-16T18:55:21;17.20;99.90
59025;DHT22;44806;48.008;13.666;2022-10-16T18:57:49;17.10;99.90
59025;DHT22;44806;48.008;13.666;2022-10-16T19:00:16;17.10;99.90
59025;DHT22;44806;48.008;13.666;2022-10-16T19:02:45;17.00;99.90
59025;DHT22;44806;48.008;13.666;2022-10-16T19:05:12;17.00;99.90
59025;DHT22;44806;48.008;13.666;2022-10-16T19:07:39;17.00;99.90
59025;DHT22;44806;48.008;13.666;2022-10-16T19:10:08;16.90;99.90
59025;DHT22;44806;48.008;13.666;2022-10-16T19:12:35;16.90;99.90
59025;DHT22;44806;48.008;13.666;2022-10-16T19:15:02;16.80;99.90
59025;DHT22;44806;48.008;13.666;2022-10-16T19:17:29;16.80;99.90
59025;DHT22;44806;48.008;13.666;2022-10-16T19:19:58;16.70;99.90
59025;DHT22;44806;48.008;13.666;2022-10-16T19:22:25;16.70;99.90
59025;DHT22;44806;48.008;13.666;2022-10-16T19:25:16;16.60;99.90
59025;DHT22;44806;48.008;13.666;2022-10-16T19:27:44;16.50;99.90
59025;DHT22;44806;48.008;13.666;2022-10-16T19:30:11;16.50;99.90
59025;DHT22;44806;48.008;13.666;2022-10-16T19:32:38;16.40;99.90
59025;DHT22;44806;48.008;13.666;2022-10-16T19:35:08;16.40;99.90
59025;DHT22;44806;48.008;13.666;2022-10-16T19:37:35;16.40;99.90
59025;DHT22;44806;48.008;13.666;2022-10-16T19:40:04;16.40;99.90
59025;DHT22;44806;48.008;13.666;2022-10-16T19:42:31;16.30;99.90
59025;DHT22;44806;48.008;13.666;2022-10-16T19:44:58;16.30;99.90
59025;DHT22;44806;48.008;13.666;2022-10-16T19:47:25;16.30;99.90
59025;DHT22;44806;48.008;13.666;2022-10-16T19:49:53;16.20;99.90